| time (UTC) | temp C | wind direction | speed KPH | gust KPH | rain 1hr cm | rain 24hr cm | rain mn cm | humidity % | barometer mb |
| 20260906083036 | 20 | 0 | 0.0 | 0.0 | 0.00 | 0.10 | 0.00 | 99 | 1012.9 |
| 20260906081547 | 20 | 0 | 0.0 | 0.0 | 0.00 | 0.10 | 0.00 | 99 | 1012.8 |
| 20260906080036 | 20 | 0 | 0.0 | 0.0 | 0.00 | 0.10 | 0.00 | 99 | 1012.6 |
| 20260906074536 | 20 | 0 | 0.0 | 0.0 | 0.00 | 0.10 | 0.00 | 99 | 1012.6 |
| 20260906073048 | 20 | 0 | 0.0 | 0.0 | 0.00 | 0.10 | 0.00 | 99 | 1012.4 |
| 20260906071533 | 20 | 0 | 0.0 | 0.0 | 0.00 | 0.10 | 0.00 | 99 | 1012.6 |
| 20260906070039 | 20 | 0 | 0.0 | 0.0 | 0.00 | 0.10 | 0.00 | 99 | 1012.6 |
| 20260906064533 | 20 | 0 | 0.0 | 0.0 | 0.00 | 0.10 | 0.00 | 99 | 1012.7 |
| 20260906063034 | 20 | 0 | 0.0 | 0.0 | 0.00 | 0.10 | 0.00 | 99 | 1012.7 |
| 20260906061535 | 21 | 0 | 0.0 | 0.0 | 0.00 | 0.10 | 0.00 | 99 | 1013.0 |
| 20260906060032 | 21 | 0 | 0.0 | 0.0 | 0.00 | 0.10 | 0.00 | 99 | 1013.3 |
| 20260906054532 | 21 | 0 | 0.0 | 0.0 | 0.00 | 0.10 | 0.00 | 99 | 1013.7 |
| 20260906053038 | 21 | 0 | 0.0 | 0.0 | 0.00 | 0.10 | 0.00 | 99 | 1013.9 |
| 20260906051535 | 21 | 0 | 0.0 | 0.0 | 0.00 | 0.10 | 0.00 | 99 | 1013.8 |
| 20260906050038 | 21 | 0 | 0.0 | 0.0 | 0.00 | 0.10 | 0.00 | 99 | 1013.9 |
| 20260906044536 | 21 | 0 | 0.0 | 0.0 | 0.00 | 0.10 | 0.00 | 99 | 1014.0 |
| 20260906043044 | 21 | 0 | 0.0 | 0.0 | 0.00 | 0.10 | 0.00 | 99 | 1013.8 |
| 20260906041534 | 21 | 0 | 0.0 | 0.0 | 0.00 | 0.10 | 0.00 | 99 | 1013.8 |
| 20260906040036 | 21 | 194 | 0.0 | 4.8 | 0.00 | 0.10 | 0.00 | 99 | 1014.1 |
| 20260906034534 | 21 | 217 | 1.6 | 8.0 | 0.00 | 0.10 | 0.10 | 98 | 1014.2 |
| 20260906033034 | 21 | 0 | 0.0 | 0.0 | 0.00 | 0.10 | 0.10 | 98 | 1014.0 |
| 20260906031533 | 21 | 0 | 0.0 | 4.8 | 0.00 | 0.10 | 0.10 | 99 | 1014.0 |
| 20260906030033 | 21 | 0 | 0.0 | 1.6 | 0.00 | 0.10 | 0.10 | 99 | 1013.9 |
| 20260906024537 | 21 | 0 | 1.6 | 8.0 | 0.00 | 0.10 | 0.10 | 98 | 1013.8 |
| 20260906023037 | 21 | 231 | 0.0 | 4.8 | 0.00 | 0.10 | 0.10 | 98 | 1014.0 |
| 20260906021535 | 22 | 0 | 0.0 | 1.6 | 0.00 | 0.10 | 0.10 | 98 | 1013.7 |
| 20260906020032 | 22 | 0 | 0.0 | 4.8 | 0.00 | 0.10 | 0.10 | 98 | 1013.8 |
| 20260906014544 | 22 | 189 | 3.2 | 8.0 | 0.00 | 0.10 | 0.10 | 98 | 1013.7 |
| 20260906013036 | 22 | 0 | 0.0 | 0.0 | 0.00 | 0.10 | 0.10 | 97 | 1013.3 |
| 20260906011544 | 22 | 0 | 0.0 | 0.0 | 0.00 | 0.10 | 0.10 | 97 | 1013.4 |
| 20260906010034 | 22 | 0 | 0.0 | 0.0 | 0.00 | 0.10 | 0.10 | 97 | 1013.2 |
| 20260906004533 | 22 | 0 | 0.0 | 0.0 | 0.00 | 0.10 | 0.10 | 97 | 1013.0 |
| 20260906003035 | 22 | 0 | 0.0 | 0.0 | 0.00 | 0.10 | 0.10 | 97 | 1012.8 |
| 20260906001534 | 22 | 27 | 1.6 | 4.8 | 0.00 | 0.10 | 0.10 | 96 | 1012.8 |
| 20260906000038 | 22 | 0 | 0.0 | 0.0 | 0.00 | 0.10 | 0.10 | 96 | 1012.9 |
| 20260905234543 | 23 | 0 | 0.0 | 0.0 | 0.00 | 0.10 | 0.10 | 95 | 1012.8 |
| 20260905233035 | 23 | 0 | 0.0 | 0.0 | 0.00 | 0.10 | 0.10 | 94 | 1013.0 |
| 20260905231535 | 23 | 0 | 0.0 | 0.0 | 0.00 | 0.10 | 0.10 | 95 | 1012.8 |
| 20260905230041 | 23 | 0 | 0.0 | 6.4 | 0.00 | 0.10 | 0.10 | 93 | 1012.5 |
| 20260905224538 | 23 | 0 | 0.0 | 4.8 | 0.00 | 0.10 | 0.10 | 91 | 1012.6 |
| 20260905223038 | 23 | 223 | 1.6 | 6.4 | 0.00 | 0.10 | 0.10 | 92 | 1012.5 |
| 20260905221536 | 23 | 202 | 0.0 | 1.6 | 0.00 | 0.10 | 0.10 | 91 | 1012.5 |
| 20260905220035 | 23 | 0 | 0.0 | 6.4 | 0.00 | 0.10 | 0.10 | 93 | 1012.8 |
| 20260905214534 | 23 | 240 | 4.8 | 8.0 | 0.00 | 0.10 | 0.10 | 91 | 1012.9 |
| 20260905213034 | 23 | 0 | 0.0 | 9.7 | 0.00 | 0.10 | 0.10 | 91 | 1013.0 |
| 20260905211609 | 23 | 355 | 8.0 | 12.9 | 0.00 | 0.10 | 0.10 | 92 | 1013.0 |
| 20260905210034 | 23 | 124 | 0.0 | 4.8 | 0.00 | 0.10 | 0.10 | 93 | 1013.8 |
| 20260905204535 | 22 | 55 | 3.2 | 8.0 | 0.00 | 0.10 | 0.10 | 95 | 1013.5 |
| 20260905203037 | 22 | 38 | 9.7 | 16.1 | 0.00 | 0.10 | 0.10 | 95 | 1013.5 |
| 20260905201537 | 22 | 51 | 0.0 | 9.7 | 0.00 | 0.10 | 0.10 | 93 | 1013.2 |
| 20260905200045 | 22 | 11 | 3.2 | 12.9 | 0.03 | 0.10 | 0.10 | 91 | 1014.0 |
| 20260905194534 | 23 | 0 | 0.0 | 4.8 | 0.10 | 0.10 | 0.10 | 91 | 1014.1 |
| 20260905193038 | 23 | 75 | 6.4 | 24.1 | 0.10 | 0.10 | 0.10 | 90 | 1014.7 |
| 20260905191537 | 23 | 55 | 6.4 | 17.7 | 0.10 | 0.10 | 0.10 | 92 | 1014.1 |
| 20260905190046 | 25 | 35 | 17.7 | 30.6 | 0.05 | 0.05 | 0.05 | 86 | 1013.7 |
| 20260905184550 | 27 | 34 | 16.1 | 33.8 | 0.00 | 0.00 | 0.00 | 69 | 1013.8 |
| 20260905183033 | 28 | 22 | 8.0 | 40.2 | 0.00 | 0.00 | 0.00 | 66 | 1014.1 |
| 20260905181533 | 32 | 32 | 20.9 | 38.6 | 0.00 | 0.00 | 0.00 | 55 | 1013.9 |
| 20260905180035 | 33 | 93 | 0.0 | 12.9 | 0.00 | 0.00 | 0.00 | 55 | 1013.6 |
| 20260905174533 | 34 | 0 | 1.6 | 8.0 | 0.00 | 0.00 | 0.00 | 54 | 1013.9 |
| 20260905173035 | 33 | 0 | 0.0 | 12.9 | 0.00 | 0.00 | 0.00 | 56 | 1013.7 |
| 20260905171536 | 33 | 232 | 6.4 | 12.9 | 0.00 | 0.00 | 0.00 | 57 | 1013.6 |
| 20260905170032 | 33 | 184 | 4.8 | 12.9 | 0.00 | 0.00 | 0.00 | 56 | 1014.0 |
| 20260905164538 | 33 | 197 | 4.8 | 9.7 | 0.00 | 0.00 | 0.00 | 59 | 1014.4 |
| 20260905163036 | 33 | 248 | 1.6 | 12.9 | 0.00 | 0.00 | 0.00 | 63 | 1014.6 |
| 20260905161537 | 32 | 197 | 3.2 | 11.3 | 0.00 | 0.00 | 0.00 | 62 | 1014.9 |
| 20260905160035 | 32 | 191 | 1.6 | 6.4 | 0.00 | 0.00 | 0.00 | 64 | 1014.9 |
| 20260905154533 | 31 | 190 | 3.2 | 6.4 | 0.00 | 0.00 | 0.00 | 66 | 1015.1 |
| 20260905153049 | 31 | 0 | 1.6 | 8.0 | 0.00 | 0.00 | 0.00 | 68 | 1015.3 |
| 20260905151540 | 30 | 0 | 0.0 | 6.4 | 0.00 | 0.00 | 0.00 | 71 | 1015.4 |
| 20260905150033 | 30 | 0 | 0.0 | 4.8 | 0.00 | 0.00 | 0.00 | 74 | 1015.4 |
| 20260905144534 | 29 | 0 | 0.0 | 3.2 | 0.00 | 0.00 | 0.00 | 75 | 1015.5 |
| 20260905143038 | 28 | 0 | 0.0 | 3.2 | 0.00 | 0.00 | 0.00 | 77 | 1015.6 |
| 20260905141536 | 28 | 0 | 1.6 | 4.8 | 0.00 | 0.00 | 0.00 | 80 | 1015.6 |
| 20260905140034 | 28 | 0 | 0.0 | 0.0 | 0.00 | 0.00 | 0.00 | 81 | 1015.7 |
| 20260905134533 | 27 | 0 | 0.0 | 0.0 | 0.00 | 0.00 | 0.00 | 83 | 1015.9 |
| 20260905133036 | 27 | 0 | 0.0 | 0.0 | 0.00 | 0.00 | 0.00 | 83 | 1015.9 |
| 20260905131548 | 26 | 0 | 0.0 | 0.0 | 0.00 | 0.00 | 0.00 | 86 | 1015.8 |
| 20260905130040 | 25 | 0 | 0.0 | 0.0 | 0.00 | 0.00 | 0.00 | 89 | 1015.7 |
| 20260905124536 | 23 | 0 | 0.0 | 0.0 | 0.00 | 0.00 | 0.00 | 94 | 1015.7 |
| 20260905123035 | 22 | 0 | 0.0 | 0.0 | 0.00 | 0.00 | 0.00 | 97 | 1015.7 |
| 20260905121537 | 22 | 0 | 0.0 | 0.0 | 0.00 | 0.00 | 0.00 | 97 | 1015.5 |
| 20260905120039 | 21 | 0 | 0.0 | 0.0 | 0.00 | 0.00 | 0.00 | 98 | 1015.5 |
| 20260905114534 | 21 | 0 | 0.0 | 0.0 | 0.00 | 0.00 | 0.00 | 98 | 1015.5 |
| 20260905113036 | 21 | 0 | 0.0 | 0.0 | 0.00 | 0.00 | 0.00 | 98 | 1015.2 |
| 20260905111554 | 21 | 0 | 0.0 | 0.0 | 0.00 | 0.00 | 0.00 | 98 | 1015.1 |
| 20260905110035 | 21 | 0 | 0.0 | 0.0 | 0.00 | 0.00 | 0.00 | 98 | 1014.9 |
| 20260905104534 | 21 | 0 | 0.0 | 0.0 | 0.00 | 0.00 | 0.00 | 98 | 1014.8 |
| 20260905103036 | 21 | 0 | 0.0 | 0.0 | 0.00 | 0.00 | 0.00 | 98 | 1014.8 |
| 20260905101534 | 21 | 0 | 0.0 | 0.0 | 0.00 | 0.00 | 0.00 | 98 | 1014.6 |
| 20260905100035 | 21 | 0 | 0.0 | 0.0 | 0.00 | 0.00 | 0.00 | 98 | 1014.6 |
| 20260905094534 | 21 | 0 | 0.0 | 0.0 | 0.00 | 0.00 | 0.00 | 98 | 1014.4 |
| 20260905093036 | 21 | 0 | 0.0 | 0.0 | 0.00 | 0.00 | 0.00 | 98 | 1014.4 |
| 20260905091535 | 21 | 0 | 0.0 | 0.0 | 0.00 | 0.00 | 0.00 | 98 | 1014.6 |
| 20260905090035 | 21 | 0 | 0.0 | 0.0 | 0.00 | 0.00 | 0.00 | 98 | 1014.5 |
| 20260905084536 | 21 | 0 | 0.0 | 0.0 | 0.00 | 0.00 | 0.00 | 97 | 1014.6 |